Time;durP1;ratioP1;P1;durP2;ratioP2;P2;SDS_P1;SDS_P2;PMS_P1;PMS_P2;Temp;Humidity;BMP_temperature;BMP_pressure;BME280_temperature;BME280_humidity;BME280_pressure;Samples;Min_cycle;Max_cycle;Signal;HPM_P1;HPM_P2
2023/09/09 00:00:51;;;;;;;15.93;14.77;;;19.70;1.00;;;;;;5083236;28;20553;-76
2023/09/09 00:03:18;;;;;;;17.47;15.57;;;19.70;1.00;;;;;;5073966;28;20430;-74
2023/09/09 00:05:45;;;;;;;16.97;15.67;;;19.60;1.00;;;;;;5076282;28;20825;-74
2023/09/09 00:08:12;;;;;;;17.07;15.60;;;19.60;1.00;;;;;;5074782;28;20508;-75
2023/09/09 00:10:39;;;;;;;16.07;14.70;;;19.50;1.00;;;;;;5077024;28;20512;-75
2023/09/09 00:13:09;;;;;;;17.07;15.53;;;19.50;1.00;;;;;;5072154;28;21131;-75
2023/09/09 00:15:36;;;;;;;15.93;14.60;;;19.50;1.00;;;;;;5068184;28;20457;-75
2023/09/09 00:18:04;;;;;;;16.30;14.90;;;19.50;1.00;;;;;;5070884;28;20622;-74
2023/09/09 00:20:32;;;;;;;16.20;14.90;;;19.40;1.00;;;;;;5073072;28;20454;-72
2023/09/09 00:22:59;;;;;;;16.27;15.03;;;19.40;1.00;;;;;;5080730;28;20451;-72
2023/09/09 00:25:27;;;;;;;17.10;15.60;;;19.40;1.00;;;;;;5078513;28;20553;-74
2023/09/09 00:27:55;;;;;;;16.80;15.50;;;19.40;1.00;;;;;;5072458;28;20528;-72
2023/09/09 00:30:22;;;;;;;17.70;16.13;;;19.40;1.00;;;;;;5070716;28;20470;-71
2023/09/09 00:32:49;;;;;;;17.30;15.63;;;19.30;1.00;;;;;;5072433;28;20462;-72
2023/09/09 00:35:18;;;;;;;16.03;14.67;;;19.30;1.00;;;;;;5075874;28;20461;-70
2023/09/09 00:37:45;;;;;;;16.47;15.17;;;19.30;1.00;;;;;;5070322;28;21096;-72
2023/09/09 00:40:13;;;;;;;17.10;15.80;;;19.20;1.00;;;;;;5067426;28;20467;-69
2023/09/09 00:42:43;;;;;;;15.53;14.03;;;19.20;1.00;;;;;;5071537;28;20601;-72
2023/09/09 00:45:10;;;;;;;18.03;16.23;;;19.10;1.00;;;;;;5069963;28;20533;-70
2023/09/09 00:47:38;;;;;;;16.07;14.97;;;19.10;1.00;;;;;;5066073;28;21340;-68
2023/09/09 00:50:10;;;;;;;17.63;16.07;;;19.10;1.00;;;;;;5066252;28;20456;-69
2023/09/09 00:52:39;;;;;;;17.40;15.73;;;19.10;1.00;;;;;;5071236;28;20509;-68
2023/09/09 00:55:07;;;;;;;17.70;16.20;;;19.10;1.00;;;;;;5069407;28;20438;-69
2023/09/09 00:57:34;;;;;;;18.17;16.63;;;19.00;1.00;;;;;;5067862;28;20581;-69
2023/09/09 01:00:05;;;;;;;17.40;15.67;;;18.90;1.00;;;;;;5070058;28;20543;-69
2023/09/09 01:02:33;;;;;;;17.00;15.60;;;18.90;1.00;;;;;;5071684;28;20504;-71
2023/09/09 01:05:03;;;;;;;17.40;15.70;;;18.80;1.00;;;;;;5067585;28;20584;-72
2023/09/09 01:07:44;;;;;;;17.33;15.83;;;18.80;1.00;;;;;;5073771;28;20473;-69
2023/09/09 01:10:11;;;;;;;15.73;14.50;;;18.70;1.00;;;;;;5071893;28;20458;-70
2023/09/09 01:12:38;;;;;;;16.73;15.33;;;18.70;1.00;;;;;;5066569;28;20915;-72
2023/09/09 01:15:07;;;;;;;16.43;14.93;;;18.70;1.00;;;;;;5067059;28;20450;-69
2023/09/09 01:17:35;;;;;;;16.53;15.30;;;18.70;1.00;;;;;;5069687;28;20635;-70
2023/09/09 01:20:07;;;;;;;17.37;15.90;;;18.70;1.00;;;;;;5067403;28;20881;-69
2023/09/09 01:22:38;;;;;;;16.83;15.37;;;18.60;1.00;;;;;;5074486;28;20951;-69
2023/09/09 01:25:06;;;;;;;18.20;16.70;;;18.60;1.00;;;;;;5066187;28;20627;-70
2023/09/09 01:27:34;;;;;;;16.97;15.60;;;18.50;1.00;;;;;;5067817;28;20593;-69
2023/09/09 01:30:00;;;;;;;15.80;14.50;;;18.50;1.00;;;;;;5067027;28;20532;-73
2023/09/09 01:32:27;;;;;;;16.83;15.33;;;18.50;1.00;;;;;;5071988;28;20819;-68
2023/09/09 01:34:55;;;;;;;16.30;15.10;;;18.50;1.00;;;;;;5082928;28;20481;-70
2023/09/09 01:37:22;;;;;;;19.13;17.40;;;18.50;1.00;;;;;;5081232;28;20505;-70
2023/09/09 01:39:51;;;;;;;16.87;15.57;;;18.50;1.00;;;;;;5082054;28;20841;-72
2023/09/09 01:42:18;;;;;;;17.90;16.40;;;18.40;1.00;;;;;;5084024;28;20441;-75
2023/09/09 01:44:46;;;;;;;17.97;16.47;;;18.40;1.00;;;;;;5081251;28;20470;-73
2023/09/09 01:47:14;;;;;;;16.83;15.23;;;18.40;1.00;;;;;;5080424;28;20481;-74
2023/09/09 01:49:42;;;;;;;17.63;16.23;;;18.40;1.00;;;;;;5084424;28;20471;-75
2023/09/09 01:52:09;;;;;;;18.07;16.57;;;18.40;1.00;;;;;;5081538;28;20947;-74
2023/09/09 01:54:36;;;;;;;18.07;16.40;;;18.30;1.00;;;;;;5083346;28;20565;-74
2023/09/09 01:57:04;;;;;;;17.33;15.93;;;18.30;1.00;;;;;;5083664;28;20998;-75
2023/09/09 01:59:31;;;;;;;17.23;15.57;;;18.30;1.00;;;;;;5084146;28;20548;-73
2023/09/09 02:01:58;;;;;;;17.27;15.87;;;18.20;1.00;;;;;;5077965;28;20602;-75
2023/09/09 02:04:25;;;;;;;17.43;15.93;;;18.20;1.00;;;;;;5069166;28;20508;-73
2023/09/09 02:06:52;;;;;;;18.53;16.90;;;18.20;1.00;;;;;;5065988;28;20491;-74
2023/09/09 02:09:19;;;;;;;16.47;15.20;;;18.20;1.00;;;;;;5076736;28;20541;-75
2023/09/09 02:11:46;;;;;;;17.90;16.20;;;18.20;1.00;;;;;;5070382;28;21018;-72
2023/09/09 02:14:14;;;;;;;17.43;16.13;;;18.10;1.00;;;;;;5066392;28;20555;-74
2023/09/09 02:16:41;;;;;;;19.13;17.60;;;18.10;1.00;;;;;;5071379;28;20483;-72
2023/09/09 02:19:08;;;;;;;19.20;17.40;;;18.10;1.00;;;;;;5063757;28;20575;-73
2023/09/09 02:21:35;;;;;;;17.93;16.57;;;18.10;1.00;;;;;;5070188;28;20480;-75
2023/09/09 02:24:02;;;;;;;17.97;16.47;;;18.10;1.00;;;;;;5072147;28;20460;-74
2023/09/09 02:26:29;;;;;;;18.47;17.07;;;18.10;1.00;;;;;;5071071;28;20492;-75
2023/09/09 02:28:56;;;;;;;18.80;17.20;;;18.20;1.00;;;;;;5069677;28;20539;-75
2023/09/09 02:31:24;;;;;;;18.17;16.60;;;18.20;1.00;;;;;;5068458;28;20460;-75
2023/09/09 02:33:51;;;;;;;18.17;16.67;;;18.00;1.00;;;;;;5065073;28;21040;-74
2023/09/09 02:36:20;;;;;;;19.77;17.83;;;18.10;1.00;;;;;;5067564;28;20531;-73
2023/09/09 02:38:47;;;;;;;19.57;17.97;;;18.20;1.00;;;;;;5070350;28;20461;-74
2023/09/09 02:41:14;;;;;;;19.70;17.60;;;18.20;1.00;;;;;;5071593;28;20458;-74
2023/09/09 02:43:41;;;;;;;18.03;16.63;;;18.20;1.00;;;;;;5065156;28;20488;-71
2023/09/09 02:46:08;;;;;;;18.33;16.83;;;18.20;1.00;;;;;;5064153;28;20515;-75
2023/09/09 02:48:36;;;;;;;19.07;17.53;;;18.20;1.00;;;;;;5067276;28;20499;-72
2023/09/09 02:51:08;;;;;;;19.67;17.87;;;18.10;1.00;;;;;;5067231;28;20566;-68
2023/09/09 02:53:35;;;;;;;19.80;17.93;;;18.10;1.00;;;;;;5070065;28;20492;-69
2023/09/09 02:56:02;;;;;;;18.10;16.63;;;18.10;1.00;;;;;;5068475;28;20473;-68
2023/09/09 02:58:29;;;;;;;19.23;17.53;;;18.10;1.00;;;;;;5065300;28;22020;-68
2023/09/09 03:01:04;;;;;;;19.43;17.67;;;18.00;1.00;;;;;;5070270;28;20491;-72
2023/09/09 03:03:31;;;;;;;18.87;17.33;;;18.10;1.00;;;;;;5065272;28;20789;-71
2023/09/09 03:06:00;;;;;;;18.27;16.67;;;18.10;1.00;;;;;;5063312;28;21310;-69
2023/09/09 03:08:27;;;;;;;19.63;17.83;;;18.10;1.00;;;;;;5072592;28;20460;-68
2023/09/09 03:10:54;;;;;;;19.53;17.83;;;18.10;1.00;;;;;;5078615;28;20464;-69
2023/09/09 03:13:21;;;;;;;19.27;17.67;;;18.10;1.00;;;;;;5064988;28;22039;-69
2023/09/09 03:15:48;;;;;;;19.47;17.77;;;18.10;1.00;;;;;;5071133;28;20491;-68
2023/09/09 03:18:15;;;;;;;20.30;18.40;;;18.10;1.00;;;;;;5063821;28;20468;-70
2023/09/09 03:20:41;;;;;;;18.87;17.27;;;18.00;1.00;;;;;;5063278;28;20461;-73
2023/09/09 03:23:10;;;;;;;18.70;17.17;;;18.00;1.00;;;;;;5067505;28;21180;-68
2023/09/09 03:25:37;;;;;;;18.60;17.10;;;18.00;1.00;;;;;;5067921;28;20565;-70
2023/09/09 03:28:04;;;;;;;18.47;16.97;;;18.00;1.00;;;;;;5068229;28;20602;-71
2023/09/09 03:30:52;;;;;;;18.10;16.40;;;17.90;1.00;;;;;;5071175;28;20456;-68
2023/09/09 03:33:19;;;;;;;18.07;16.47;;;17.90;1.00;;;;;;5074582;28;20521;-68
2023/09/09 03:35:46;;;;;;;19.87;18.07;;;17.80;1.00;;;;;;5081637;28;20567;-71
2023/09/09 03:38:16;;;;;;;19.10;17.50;;;17.80;1.00;;;;;;5084826;28;20471;-68
2023/09/09 03:40:43;;;;;;;19.70;17.87;;;17.80;1.00;;;;;;5084875;28;20930;-68
2023/09/09 03:43:10;;;;;;;20.07;18.07;;;17.80;1.00;;;;;;5079002;28;20707;-69
2023/09/09 03:45:37;;;;;;;18.57;16.97;;;17.70;1.00;;;;;;5082655;28;20488;-71
2023/09/09 03:48:05;;;;;;;18.83;17.13;;;17.70;1.00;;;;;;5080176;28;20480;-67
2023/09/09 03:50:32;;;;;;;18.23;16.70;;;17.70;1.00;;;;;;5084377;28;20862;-67
2023/09/09 03:52:59;;;;;;;19.77;17.90;;;17.70;1.00;;;;;;5083709;28;20551;-70
2023/09/09 03:55:27;;;;;;;19.10;17.60;;;17.70;1.00;;;;;;5084320;28;21048;-67
2023/09/09 03:57:54;;;;;;;20.60;18.60;;;17.60;1.00;;;;;;5078587;28;20471;-67
2023/09/09 04:00:22;;;;;;;21.50;19.67;;;17.60;1.00;;;;;;5082371;28;20927;-68
2023/09/09 04:02:50;;;;;;;18.73;17.13;;;17.60;1.00;;;;;;5077075;28;20932;-72
2023/09/09 04:05:17;;;;;;;20.27;18.33;;;17.60;1.00;;;;;;5064255;28;20639;-69
2023/09/09 04:07:44;;;;;;;20.23;18.47;;;17.50;1.00;;;;;;5067256;28;20509;-69
2023/09/09 04:10:12;;;;;;;20.17;18.57;;;17.50;1.00;;;;;;5076419;28;20483;-68
2023/09/09 04:12:41;;;;;;;18.83;17.33;;;17.50;1.00;;;;;;5066053;28;20514;-69
2023/09/09 04:15:09;;;;;;;20.23;18.43;;;17.50;1.00;;;;;;5065797;28;20463;-69
2023/09/09 04:17:36;;;;;;;19.97;18.23;;;17.50;1.00;;;;;;5069482;28;21361;-69
2023/09/09 04:20:04;;;;;;;20.07;18.40;;;17.40;1.00;;;;;;5067947;28;20844;-71
2023/09/09 04:22:31;;;;;;;20.40;18.80;;;17.40;1.00;;;;;;5073833;28;20907;-68
2023/09/09 04:24:58;;;;;;;20.40;18.60;;;17.40;1.00;;;;;;5078938;28;20525;-72
2023/09/09 04:27:25;;;;;;;19.07;17.37;;;17.40;1.00;;;;;;5068136;28;21049;-68
2023/09/09 04:29:53;;;;;;;19.77;18.03;;;17.40;1.00;;;;;;5071300;28;20460;-68
2023/09/09 04:32:20;;;;;;;21.00;19.13;;;17.30;1.00;;;;;;5066950;28;20774;-70
2023/09/09 04:34:48;;;;;;;20.40;18.63;;;17.30;1.00;;;;;;5065665;28;21032;-69
2023/09/09 04:37:16;;;;;;;20.97;19.30;;;17.30;1.00;;;;;;5067718;28;20595;-70
2023/09/09 04:39:43;;;;;;;22.60;20.60;;;17.30;1.00;;;;;;5068016;28;20470;-69
2023/09/09 04:42:09;;;;;;;21.73;19.93;;;17.20;1.00;;;;;;5067922;28;20444;-72
2023/09/09 04:44:36;;;;;;;22.50;20.63;;;17.20;1.00;;;;;;5065785;28;21606;-70
2023/09/09 04:47:05;;;;;;;21.70;19.90;;;17.10;1.00;;;;;;5066733;28;20442;-67
2023/09/09 04:49:32;;;;;;;22.60;20.40;;;17.20;1.00;;;;;;5067642;28;20588;-72
2023/09/09 04:51:59;;;;;;;22.50;20.50;;;17.20;1.00;;;;;;5066250;28;22476;-67
2023/09/09 04:54:26;;;;;;;20.23;18.53;;;17.20;1.00;;;;;;5069777;28;20974;-67
2023/09/09 04:56:53;;;;;;;20.67;18.87;;;17.20;1.00;;;;;;5064624;28;20474;-67
2023/09/09 04:59:20;;;;;;;21.80;20.00;;;17.20;1.00;;;;;;5068328;28;21147;-68
2023/09/09 05:01:47;;;;;;;21.70;19.80;;;17.20;1.00;;;;;;5065726;28;20548;-68
2023/09/09 05:04:15;;;;;;;22.17;20.37;;;17.20;1.00;;;;;;5065815;28;20476;-68
2023/09/09 05:06:42;;;;;;;22.10;20.33;;;17.20;1.00;;;;;;5064874;28;20456;-70
2023/09/09 05:09:09;;;;;;;22.70;20.80;;;17.20;1.00;;;;;;5068434;28;20522;-72
2023/09/09 05:11:36;;;;;;;21.50;19.60;;;17.30;1.00;;;;;;5067371;28;20470;-69
2023/09/09 05:14:05;;;;;;;21.20;19.50;;;17.30;1.00;;;;;;5072946;28;20553;-73
2023/09/09 05:16:32;;;;;;;21.87;20.07;;;17.30;1.00;;;;;;5065786;28;20530;-72
2023/09/09 05:18:59;;;;;;;21.30;19.40;;;17.30;1.00;;;;;;5064371;28;20454;-73
2023/09/09 05:21:27;;;;;;;21.80;20.00;;;17.30;1.00;;;;;;5065123;28;20483;-72
2023/09/09 05:23:54;;;;;;;21.83;19.80;;;17.30;1.00;;;;;;5067456;28;20458;-74
2023/09/09 05:26:23;;;;;;;22.30;20.13;;;17.30;1.00;;;;;;5069912;28;20959;-73
2023/09/09 05:28:50;;;;;;;21.67;19.73;;;17.30;1.00;;;;;;5069633;28;20498;-74
2023/09/09 05:31:17;;;;;;;29.07;26.47;;;17.40;1.00;;;;;;5066050;28;21286;-74
2023/09/09 05:33:44;;;;;;;20.63;18.93;;;17.40;1.00;;;;;;5075225;28;20467;-74
2023/09/09 05:36:11;;;;;;;22.00;20.07;;;17.40;1.00;;;;;;5080279;28;20851;-74
2023/09/09 05:38:40;;;;;;;23.53;21.43;;;17.40;1.00;;;;;;5079429;28;21018;-74
2023/09/09 05:41:06;;;;;;;21.77;19.97;;;17.50;1.00;;;;;;5082372;28;20537;-72
2023/09/09 05:43:33;;;;;;;21.33;19.53;;;17.50;1.00;;;;;;5083988;28;20556;-72
2023/09/09 05:46:01;;;;;;;23.60;21.57;;;17.60;1.00;;;;;;5077013;28;20918;-74
2023/09/09 05:48:28;;;;;;;21.87;20.03;;;17.60;1.00;;;;;;5081582;28;20460;-74
2023/09/09 05:50:55;;;;;;;23.70;21.40;;;17.60;1.00;;;;;;5078567;28;20971;-73
2023/09/09 05:53:22;;;;;;;24.83;22.57;;;17.60;1.00;;;;;;5081148;28;20501;-73
2023/09/09 05:55:51;;;;;;;22.30;20.43;;;17.60;1.00;;;;;;5081424;28;21290;-74
2023/09/09 05:58:18;;;;;;;21.90;20.10;;;17.70;1.00;;;;;;5083750;28;20554;-73
2023/09/09 06:00:44;;;;;;;23.47;21.30;;;17.70;1.00;;;;;;5082817;28;20465;-73
2023/09/09 06:03:11;;;;;;;22.60;20.80;;;17.70;1.00;;;;;;5074891;28;20479;-73
2023/09/09 06:05:38;;;;;;;21.77;19.77;;;17.70;1.00;;;;;;5067206;28;20906;-72
2023/09/09 06:08:05;;;;;;;21.23;19.20;;;17.70;1.00;;;;;;5071969;28;20488;-75
2023/09/09 06:10:32;;;;;;;21.30;19.60;;;17.80;1.00;;;;;;5070237;28;21049;-74
2023/09/09 06:13:00;;;;;;;22.47;20.57;;;17.90;1.00;;;;;;5068219;28;20475;-71
2023/09/09 06:15:28;;;;;;;21.07;19.23;;;18.00;1.00;;;;;;5073393;28;20950;-72
2023/09/09 06:17:57;;;;;;;21.70;19.73;;;18.00;1.00;;;;;;5066979;28;20471;-72
2023/09/09 06:20:24;;;;;;;22.30;20.20;;;18.10;1.00;;;;;;5065918;28;20485;-71
2023/09/09 06:22:50;;;;;;;21.70;19.77;;;18.10;1.00;;;;;;5070244;28;20472;-71
2023/09/09 06:25:18;;;;;;;20.97;19.17;;;18.20;1.00;;;;;;5066944;28;21070;-68
2023/09/09 06:27:45;;;;;;;21.37;19.50;;;18.30;1.00;;;;;;5067996;28;20469;-73
2023/09/09 06:30:14;;;;;;;20.90;19.30;;;18.20;1.00;;;;;;5066863;28;20463;-69
2023/09/09 06:32:41;;;;;;;19.97;18.27;;;18.30;1.00;;;;;;5081277;28;21052;-70
2023/09/09 06:35:09;;;;;;;20.70;18.80;;;18.40;1.00;;;;;;5077112;28;20823;-69
2023/09/09 06:37:36;;;;;;;20.30;18.67;;;18.50;1.00;;;;;;5081296;28;21017;-70
2023/09/09 06:40:09;;;;;;;21.07;19.00;;;18.50;1.00;;;;;;5079817;28;20465;-71
2023/09/09 06:42:39;;;;;;;19.57;18.00;;;18.60;1.00;;;;;;5069957;28;20489;-70
2023/09/09 06:45:07;;;;;;;19.47;17.83;;;18.80;1.00;;;;;;5077493;28;20835;-70
2023/09/09 06:47:35;;;;;;;20.07;18.27;;;18.90;1.00;;;;;;5080275;28;20473;-71
2023/09/09 06:50:03;;;;;;;19.43;17.77;;;19.00;1.00;;;;;;5079245;28;21602;-70
2023/09/09 06:52:30;;;;;;;18.60;17.10;;;19.20;1.00;;;;;;5077920;28;20466;-70
2023/09/09 06:54:57;;;;;;;17.77;16.37;;;19.30;1.00;;;;;;5079485;28;20476;-71
2023/09/09 06:57:24;;;;;;;18.93;17.13;;;19.30;1.00;;;;;;5076654;28;20484;-68
2023/09/09 06:59:51;;;;;;;18.07;16.67;;;19.50;1.00;;;;;;5082189;28;20599;-69
2023/09/09 07:02:18;;;;;;;27.03;24.60;;;19.50;1.00;;;;;;5078796;28;20503;-72
2023/09/09 07:04:46;;;;;;;19.90;18.27;;;19.60;1.00;;;;;;5080466;28;20478;-70
2023/09/09 07:07:13;;;;;;;18.23;16.67;;;19.70;1.00;;;;;;5078710;28;20473;-71
2023/09/09 07:09:40;;;;;;;17.83;16.33;;;19.80;1.00;;;;;;5081333;28;20594;-72
2023/09/09 07:12:10;;;;;;;18.23;16.73;;;19.80;1.00;;;;;;5080748;28;20481;-70
2023/09/09 07:14:37;;;;;;;17.93;15.83;;;19.70;1.00;;;;;;5081875;28;20469;-68
2023/09/09 07:17:05;;;;;;;17.87;16.40;;;19.80;1.00;;;;;;5078006;28;20465;-69
2023/09/09 07:19:32;;;;;;;17.00;15.40;;;20.00;1.00;;;;;;5045808;28;20560;-70
2023/09/09 07:22:00;;;;;;;16.93;15.43;;;20.10;1.00;;;;;;5041411;28;20488;-73
2023/09/09 07:24:27;;;;;;;16.23;14.90;;;20.30;1.00;;;;;;5043960;28;20579;-69
2023/09/09 07:26:54;;;;;;;16.80;15.30;;;20.50;1.00;;;;;;5039319;28;20822;-72
2023/09/09 07:29:22;;;;;;;16.23;14.83;;;20.70;1.00;;;;;;5043663;28;20464;-70
2023/09/09 07:31:48;;;;;;;16.47;14.90;;;20.80;1.00;;;;;;5042576;28;20473;-73
2023/09/09 07:34:16;;;;;;;15.97;14.73;;;20.90;1.00;;;;;;5040783;28;20458;-68
2023/09/09 07:36:43;;;;;;;16.97;15.47;;;21.10;1.00;;;;;;5043648;28;20468;-70
2023/09/09 07:39:11;;;;;;;15.27;14.00;;;21.40;1.00;;;;;;5039961;28;20457;-74
2023/09/09 07:41:38;;;;;;;15.20;13.90;;;21.50;1.00;;;;;;5037991;28;20466;-69
2023/09/09 07:44:05;;;;;;;15.60;14.20;;;21.60;1.00;;;;;;5040350;28;20511;-72
2023/09/09 07:46:32;;;;;;;14.13;13.03;;;21.70;1.00;;;;;;5041378;28;20474;-69
2023/09/09 07:48:59;;;;;;;14.30;13.20;;;21.90;1.00;;;;;;5041778;28;20558;-68
2023/09/09 07:51:26;;;;;;;15.30;13.90;;;22.00;1.00;;;;;;5042046;28;20460;-70
2023/09/09 07:53:53;;;;;;;14.60;13.30;;;22.10;1.00;;;;;;5041506;28;20585;-68
2023/09/09 07:56:21;;;;;;;13.93;12.87;;;22.20;1.00;;;;;;5037027;28;20956;-71
2023/09/09 07:58:48;;;;;;;14.53;13.13;;;22.30;1.00;;;;;;5042361;28;20990;-70
2023/09/09 08:01:15;;;;;;;14.00;12.60;;;22.40;1.00;;;;;;5042307;28;20559;-69
2023/09/09 08:03:45;;;;;;;13.10;12.00;;;22.60;1.00;;;;;;5041453;28;20474;-70
2023/09/09 08:06:12;;;;;;;12.80;11.70;;;22.70;1.00;;;;;;5038659;28;20458;-70
2023/09/09 08:08:39;;;;;;;13.03;11.93;;;22.80;1.00;;;;;;5041637;28;20550;-68
2023/09/09 08:11:06;;;;;;;13.00;11.90;;;22.90;1.00;;;;;;5039969;28;20481;-71
2023/09/09 08:13:35;;;;;;;13.63;12.53;;;23.00;1.00;;;;;;5039963;28;20475;-67
2023/09/09 08:16:02;;;;;;;13.37;12.17;;;23.30;1.00;;;;;;5044811;28;20575;-71
2023/09/09 08:18:29;;;;;;;12.03;11.03;;;23.40;1.00;;;;;;5058857;28;20526;-73
2023/09/09 08:20:56;;;;;;;12.70;11.60;;;23.50;1.00;;;;;;5082400;28;20480;-70
2023/09/09 08:23:23;;;;;;;12.27;11.17;;;23.70;1.00;;;;;;5082866;28;20481;-69
2023/09/09 08:25:50;;;;;;;11.77;10.87;;;23.80;1.00;;;;;;5062974;28;20469;-67
2023/09/09 08:28:17;;;;;;;11.43;10.50;;;24.00;1.00;;;;;;5075223;28;20452;-71
2023/09/09 08:30:45;;;;;;;12.30;11.37;;;24.20;1.00;;;;;;5081516;28;20535;-71
2023/09/09 08:33:12;;;;;;;12.13;10.90;;;24.30;1.00;;;;;;5079748;28;20493;-67
2023/09/09 08:35:39;;;;;;;11.80;10.73;;;24.30;1.00;;;;;;5075387;28;20564;-73
2023/09/09 08:38:06;;;;;;;13.53;12.30;;;24.30;1.00;;;;;;5074046;28;20592;-70
2023/09/09 08:40:35;;;;;;;11.57;10.47;;;24.50;1.00;;;;;;5082001;28;20472;-69
2023/09/09 08:43:09;;;;;;;12.33;11.23;;;24.70;1.00;;;;;;5080212;28;20551;-75
2023/09/09 08:45:45;;;;;;;10.80;9.90;;;24.70;1.00;;;;;;5085867;28;21360;-75
2023/09/09 08:48:20;;;;;;;11.33;10.30;;;24.80;1.00;;;;;;5081712;28;21336;-75
2023/09/09 08:50:48;;;;;;;11.37;10.53;;;24.90;1.00;;;;;;5082582;28;20527;-75
2023/09/09 08:53:18;;;;;;;11.60;10.53;;;25.10;1.00;;;;;;5081245;28;21398;-74
2023/09/09 08:55:45;;;;;;;11.40;10.33;;;25.10;1.00;;;;;;5079663;28;20457;-73
2023/09/09 08:58:12;;;;;;;11.73;10.67;;;25.10;1.00;;;;;;5079497;28;20471;-76
2023/09/09 09:00:39;;;;;;;12.70;11.40;;;25.30;1.00;;;;;;5084675;28;20568;-75
2023/09/09 09:03:07;;;;;;;11.33;10.40;;;25.50;1.00;;;;;;5085242;28;20495;-75
2023/09/09 09:05:36;;;;;;;11.17;10.27;;;25.60;1.00;;;;;;5084806;28;20480;-73
2023/09/09 09:08:04;;;;;;;10.87;9.77;;;25.80;1.00;;;;;;5085576;28;20525;-74
2023/09/09 09:10:31;;;;;;;10.10;9.20;;;25.90;1.00;;;;;;5087315;28;20586;-74
2023/09/09 09:12:58;;;;;;;11.40;10.40;;;26.00;1.00;;;;;;5076061;28;20560;-74
2023/09/09 09:15:26;;;;;;;10.47;9.40;;;26.20;1.00;;;;;;5077787;28;20564;-73
2023/09/09 09:17:53;;;;;;;10.70;9.80;;;26.60;1.00;;;;;;5080936;28;21260;-74
2023/09/09 09:20:27;;;;;;;10.10;9.40;;;27.30;1.00;;;;;;5075841;28;20540;-75
2023/09/09 09:22:59;;;;;;;10.77;9.77;;;28.70;1.00;;;;;;5079335;28;20469;-74
2023/09/09 09:25:27;;;;;;;10.20;9.30;;;30.30;1.00;;;;;;5080866;28;20430;-75
2023/09/09 09:27:57;;;;;;;9.77;8.87;;;31.50;1.00;;;;;;5080375;28;20469;-74
2023/09/09 09:30:25;;;;;;;10.03;9.13;;;32.40;1.00;;;;;;5083314;28;20501;-74
2023/09/09 09:32:53;;;;;;;9.73;8.73;;;33.10;1.00;;;;;;5079727;28;20466;-73
2023/09/09 09:35:25;;;;;;;10.90;10.10;;;33.50;1.00;;;;;;5080808;28;20497;-74
2023/09/09 09:37:53;;;;;;;9.73;9.03;;;34.20;1.00;;;;;;5079346;28;20504;-72
2023/09/09 09:40:22;;;;;;;9.83;9.03;;;34.70;1.00;;;;;;5082730;28;20991;-76
2023/09/09 09:42:50;;;;;;;9.20;8.60;;;35.10;1.00;;;;;;5079552;28;20458;-75
2023/09/09 09:45:18;;;;;;;9.03;8.40;;;35.60;1.00;;;;;;5079203;27;20454;-76
2023/09/09 09:47:46;;;;;;;10.53;9.47;;;36.00;1.00;;;;;;5082538;28;21360;-74
2023/09/09 09:50:22;;;;;;;8.70;8.00;;;36.20;1.00;;;;;;5082940;27;20459;-73
2023/09/09 09:52:56;;;;;;;8.87;8.10;;;36.60;1.00;;;;;;5074328;28;20536;-74
2023/09/09 09:55:25;;;;;;;8.97;8.17;;;37.00;1.00;;;;;;5081220;28;20537;-73
2023/09/09 09:57:55;;;;;;;8.90;8.20;;;37.40;1.00;;;;;;5080460;28;20463;-70
2023/09/09 10:00:23;;;;;;;9.37;8.53;;;36.50;1.00;;;;;;5079543;28;20463;-70
2023/09/09 10:02:52;;;;;;;8.63;7.93;;;36.20;1.00;;;;;;5077233;28;20442;-71
2023/09/09 10:05:22;;;;;;;8.20;7.60;;;37.00;1.00;;;;;;5078320;28;20541;-71
2023/09/09 10:07:53;;;;;;;8.47;7.77;;;37.40;1.00;;;;;;5076297;28;20462;-70
2023/09/09 10:10:24;;;;;;;7.70;7.10;;;38.20;1.00;;;;;;5080292;28;20644;-70
2023/09/09 10:12:54;;;;;;;8.23;7.53;;;39.20;1.00;;;;;;5077907;28;20531;-75
2023/09/09 10:15:22;;;;;;;9.13;8.40;;;39.70;1.00;;;;;;5078618;28;20575;-70
2023/09/09 10:17:51;;;;;;;11.07;7.50;;;40.20;1.00;;;;;;5081392;28;21056;-71
2023/09/09 10:20:19;;;;;;;8.63;7.83;;;40.20;1.00;;;;;;5078627;28;20478;-71
2023/09/09 10:22:49;;;;;;;8.37;7.67;;;40.10;1.00;;;;;;5080212;28;20968;-73
2023/09/09 10:25:17;;;;;;;7.30;6.60;;;40.20;1.00;;;;;;5080383;28;21028;-73
2023/09/09 10:27:47;;;;;;;7.50;6.90;;;40.20;1.00;;;;;;5076028;28;20510;-70
2023/09/09 10:30:17;;;;;;;6.83;6.23;;;40.10;1.00;;;;;;5077792;28;20484;-71
2023/09/09 10:32:45;;;;;;;6.80;6.30;;;40.60;1.00;;;;;;5078854;28;20471;-71
2023/09/09 10:35:12;;;;;;;6.50;5.93;;;40.90;1.00;;;;;;5075379;28;20470;-74
2023/09/09 10:37:39;;;;;;;6.60;6.00;;;40.90;1.00;;;;;;5078633;28;20479;-73
2023/09/09 10:40:10;;;;;;;7.20;6.50;;;40.80;1.00;;;;;;5078099;28;20467;-71
2023/09/09 10:42:39;;;;;;;6.33;5.73;;;39.90;1.00;;;;;;5079518;28;20462;-71
2023/09/09 10:45:28;;;;;;;10.30;6.13;;;39.90;1.00;;;;;;5079140;28;20464;-70
2023/09/09 10:47:58;;;;;;;6.70;6.10;;;39.60;1.00;;;;;;5080373;28;20465;-69
2023/09/09 10:50:39;;;;;;;6.43;5.83;;;40.00;1.00;;;;;;5079704;28;21103;-69
2023/09/09 10:53:17;;;;;;;6.40;5.80;;;39.80;1.00;;;;;;5076876;28;20477;-70
2023/09/09 10:55:44;;;;;;;6.93;6.17;;;39.30;1.00;;;;;;5080251;28;20455;-71
2023/09/09 10:58:16;;;;;;;6.30;5.80;;;39.60;1.00;;;;;;5077181;28;20453;-71
2023/09/09 11:00:46;;;;;;;7.30;6.70;;;39.40;1.00;;;;;;5079239;28;20550;-71
2023/09/09 11:03:15;;;;;;;6.30;5.80;;;39.80;1.00;;;;;;5074340;28;21161;-71
2023/09/09 11:06:02;;;;;;;6.07;5.60;;;40.50;1.00;;;;;;5076714;28;20627;-72
2023/09/09 11:08:35;;;;;;;6.47;6.00;;;41.40;1.00;;;;;;5075712;28;20450;-73
2023/09/09 11:11:08;;;;;;;6.63;5.93;;;41.70;1.00;;;;;;5078189;28;20466;-71
2023/09/09 11:13:43;;;;;;;6.60;6.20;;;42.50;1.00;;;;;;5077582;28;20948;-70
2023/09/09 11:16:27;;;;;;;6.13;5.37;;;42.60;1.00;;;;;;5080193;28;20601;-69
2023/09/09 11:18:55;;;;;;;6.27;5.70;;;42.10;1.00;;;;;;5073808;28;20554;-73
2023/09/09 11:21:22;;;;;;;5.90;5.50;;;41.80;1.00;;;;;;5075062;28;21308;-71
2023/09/09 11:23:50;;;;;;;5.90;5.50;;;42.10;1.00;;;;;;5077688;28;20458;-70
2023/09/09 11:26:17;;;;;;;6.07;5.57;;;42.40;1.00;;;;;;5081090;28;20926;-71
2023/09/09 11:28:46;;;;;;;5.57;5.17;;;42.00;1.00;;;;;;5079215;28;21010;-73
2023/09/09 11:31:13;;;;;;;6.67;6.07;;;42.00;1.00;;;;;;5071190;28;21029;-70
2023/09/09 11:33:45;;;;;;;5.83;5.43;;;41.70;1.00;;;;;;5074755;28;20474;-70
2023/09/09 11:36:16;;;;;;;5.83;4.93;;;41.60;1.00;;;;;;5075591;28;20535;-72
2023/09/09 11:38:44;;;;;;;5.97;5.43;;;42.30;1.00;;;;;;5079297;28;20462;-71
2023/09/09 11:41:19;;;;;;;7.23;4.83;;;42.20;1.00;;;;;;5074231;28;20973;-74
2023/09/09 11:43:47;;;;;;;5.17;4.77;;;42.00;1.00;;;;;;5075548;28;20472;-74
2023/09/09 11:46:14;;;;;;;5.53;5.13;;;42.50;1.00;;;;;;5074985;28;21533;-72
2023/09/09 11:48:44;;;;;;;6.30;5.23;;;41.80;1.00;;;;;;5082232;28;20448;-71
2023/09/09 11:51:11;;;;;;;5.90;5.50;;;41.00;1.00;;;;;;5081505;28;21025;-70
2023/09/09 11:53:38;;;;;;;5.23;4.90;;;40.70;1.00;;;;;;5078437;28;20530;-74
2023/09/09 11:56:05;;;;;;;6.37;5.70;;;41.50;1.00;;;;;;5074480;28;21204;-71
2023/09/09 11:58:40;;;;;;;8.20;4.97;;;41.60;1.00;;;;;;5075011;28;21239;-73
2023/09/09 12:01:07;;;;;;;5.47;5.07;;;42.30;1.00;;;;;;5077141;28;21114;-72
2023/09/09 12:03:34;;;;;;;5.20;4.90;;;43.20;1.00;;;;;;5079067;28;20504;-70
2023/09/09 12:06:06;;;;;;;5.77;5.37;;;42.40;1.00;;;;;;5078809;28;20458;-72
2023/09/09 12:08:33;;;;;;;5.47;5.07;;;42.60;1.00;;;;;;5075804;28;20536;-72
2023/09/09 12:11:02;;;;;;;5.77;5.30;;;42.40;1.00;;;;;;5079353;28;20580;-71
2023/09/09 12:13:29;;;;;;;5.80;5.20;;;42.90;1.00;;;;;;5077413;28;20467;-71
2023/09/09 12:15:57;;;;;;;4.87;4.57;;;44.30;1.00;;;;;;5080320;28;20966;-73
2023/09/09 12:18:23;;;;;;;4.87;4.57;;;45.50;1.00;;;;;;5080097;28;20991;-74
2023/09/09 12:21:06;;;;;;;5.77;5.30;;;46.20;1.00;;;;;;5082421;28;20515;-74
2023/09/09 12:23:35;;;;;;;6.10;5.70;;;46.60;1.00;;;;;;5076291;28;20975;-75
2023/09/09 12:26:12;;;;;;;5.63;5.20;;;46.10;1.00;;;;;;5078986;28;20854;-73
2023/09/09 12:28:42;;;;;;;4.80;4.50;;;46.10;1.00;;;;;;5084779;28;20451;-73
2023/09/09 12:31:11;;;;;;;6.70;4.83;;;45.40;1.00;;;;;;5079041;28;20447;-73
2023/09/09 12:33:45;;;;;;;5.73;5.40;;;43.90;1.00;;;;;;5078836;28;20457;-72
2023/09/09 12:36:19;;;;;;;5.73;5.33;;;44.00;1.00;;;;;;5080187;28;20635;-75
2023/09/09 12:38:48;;;;;;;4.93;4.53;;;44.70;1.00;;;;;;5081089;28;20467;-74
2023/09/09 12:41:18;;;;;;;5.93;5.47;;;44.70;1.00;;;;;;5081070;28;20474;-73
2023/09/09 12:43:46;;;;;;;5.97;5.50;;;45.40;1.00;;;;;;5083447;28;20611;-74
2023/09/09 12:46:20;;;;;;;5.13;4.73;;;44.80;1.00;;;;;;5082825;28;20636;-74
2023/09/09 12:48:54;;;;;;;5.90;4.90;;;43.60;1.00;;;;;;5082831;28;21055;-73